< < Back
Terminal Aerodrome Forecast


Current Version              Previous Versions:   1  2  3  4  5  6  7  8  9  

Terminal Aerodrome Forecast

637
FTUS42 KCAE 160200 AAA
TAFAGS
TAF AMD
KAGS 160235Z 1603/1624 32013G23KT P6SM FEW250
     FM160400 34011KT P6SM FEW250
     FM160800 01010KT P6SM SKC
     FM161300 04011G17KT P6SM SKC
     FM161700 07010KT P6SM SKC=



Latest METAR

870
SAUS70 KWBC 160400 RRC
MTRAGS
METAR KAGS 160353Z AUTO 35009KT 10SM CLR 08/02 A3003 RMK AO2 SLP169
T00780017


USA.gov is the U.S. government's official web portal to all federal, state and local government web resources and services.